Pagrindinis puslapis
METAR-TAF:

METAR-TAF

Oro uostai :

Groote Eylandt, Australija

platuma: 13-58-30S, ilguma: 136-27-36E, Aukštis: 16 m

Dabartinis oras

Ataskaita buvo paskelbta 43 minutes, ne 19:00 UTC
Vėjas 3 kt iš Šiaurės
Temperatūra 29°C
Drėgmė 79%
Slėgis 1005 hPa
Matomumas 10 km arba daugiau
Išsisklaidę debesys ne aukštis 1900 ft

METAR: YGTE 251900Z AUTO 36003KT 9999 // SCT019 29/25 Q1005

Laikas: 05:13 (19:43 UTC)


TAF: trūkstamas

Orai ataskaitas ir orų prognozės (METAR, TAF).

turimą stotys yra geltonos ir raudonos taškus žemėlapyje.

Perkelti pele per norėdami pamatyti stoties vardą.

Tada spustelėkite, norėdami matyti oro stebėjimo ir prognozės.

Norėdami pakeisti žemėlapį: spustelėkite ant žalios mygtukų su juodo kryžiaus žemyn,; žalią mygtuką su brūkšneliu, jei norite nutolinti; arba žalių rodyklių gretimoms žemėlapius.


METAR-TAF: